createdAt,value
2019-03-27T00:01:13.082Z,61.00
2019-03-27T00:03:41.312Z,62.20
2019-03-27T00:06:09.536Z,62.00
2019-03-27T00:08:37.768Z,62.30
2019-03-27T00:11:05.988Z,63.10
2019-03-27T00:13:34.228Z,62.50
2019-03-27T00:16:02.457Z,61.70
2019-03-27T00:18:30.688Z,62.10
2019-03-27T00:20:58.908Z,61.20
2019-03-27T00:23:27.148Z,61.50
2019-03-27T00:25:55.664Z,63.50
2019-03-27T00:28:23.900Z,63.50
2019-03-27T00:30:52.128Z,64.60
2019-03-27T00:33:20.360Z,64.50
2019-03-27T00:35:48.610Z,63.50
2019-03-27T00:38:16.833Z,63.50
2019-03-27T00:40:45.068Z,62.80
2019-03-27T00:43:13.284Z,61.90
2019-03-27T00:45:41.544Z,62.40
2019-03-27T00:48:09.768Z,62.50
2019-03-27T00:50:37.996Z,61.40
2019-03-27T00:53:06.220Z,61.80
2019-03-27T00:55:34.476Z,61.40
2019-03-27T00:58:02.701Z,61.90
2019-03-27T01:00:46.205Z,62.80
2019-03-27T01:03:14.424Z,62.80
2019-03-27T01:05:42.664Z,61.90
2019-03-27T01:08:10.884Z,62.80
2019-03-27T01:10:39.409Z,62.80
2019-03-27T01:13:07.632Z,62.70
2019-03-27T01:15:40.172Z,61.80
2019-03-27T01:18:06.089Z,61.30
2019-03-27T01:20:34.642Z,61.50
2019-03-27T01:23:02.864Z,61.90
2019-03-27T01:25:31.116Z,62.50
2019-03-27T01:27:59.332Z,63.20
2019-03-27T01:30:27.584Z,63.50
2019-03-27T01:32:55.846Z,64.60
2019-03-27T01:35:24.078Z,65.90
2019-03-27T01:37:52.592Z,65.00
2019-03-27T01:40:20.828Z,64.90
2019-03-27T01:42:49.043Z,65.80
2019-03-27T01:45:17.337Z,65.60
2019-03-27T01:47:45.595Z,65.10
2019-03-27T01:50:13.831Z,65.20
2019-03-27T01:52:42.056Z,64.80
2019-03-27T01:55:10.315Z,64.00
2019-03-27T01:57:38.528Z,65.10
2019-03-27T02:00:07.127Z,66.40
2019-03-27T02:02:35.332Z,66.50
2019-03-27T02:05:05.128Z,66.20
2019-03-27T02:07:33.356Z,65.50
2019-03-27T02:10:01.604Z,66.40
2019-03-27T02:12:29.816Z,66.60
2019-03-27T02:14:58.047Z,66.40
2019-03-27T02:17:26.267Z,64.60
2019-03-27T02:19:54.814Z,65.50
2019-03-27T02:22:23.037Z,65.60
2019-03-27T02:24:51.275Z,67.00
2019-03-27T02:27:19.546Z,65.70
2019-03-27T02:29:47.816Z,64.70
2019-03-27T02:32:20.263Z,65.30
2019-03-27T02:34:46.009Z,65.00
2019-03-27T02:37:14.238Z,65.40
2019-03-27T02:39:42.472Z,65.90
2019-03-27T02:42:10.865Z,66.20
2019-03-27T02:44:39.115Z,65.30
2019-03-27T02:47:07.349Z,64.60
2019-03-27T02:49:35.586Z,64.50
2019-03-27T02:52:03.880Z,65.80
2019-03-27T02:54:32.109Z,66.10
2019-03-27T02:57:00.346Z,66.70
2019-03-27T02:59:28.570Z,66.40
2019-03-27T03:01:56.799Z,65.30
2019-03-27T03:04:25.330Z,66.40
2019-03-27T03:06:53.812Z,65.40
2019-03-27T03:09:22.029Z,67.30
2019-03-27T03:11:50.285Z,67.20
2019-03-27T03:14:18.577Z,66.50
2019-03-27T03:16:46.841Z,65.40
2019-03-27T03:19:15.065Z,65.20
2019-03-27T03:21:43.288Z,65.70
2019-03-27T03:24:11.523Z,65.90
2019-03-27T03:26:39.752Z,68.00
2019-03-27T03:29:07.987Z,64.80
2019-03-27T03:31:36.319Z,65.10
2019-03-27T03:34:04.605Z,66.20
2019-03-27T03:36:32.902Z,65.90
2019-03-27T03:39:01.227Z,66.70
2019-03-27T03:41:29.469Z,67.10
2019-03-27T03:43:57.694Z,67.30
2019-03-27T03:46:25.963Z,68.50
2019-03-27T03:48:54.185Z,69.40
2019-03-27T03:51:22.424Z,69.50
2019-03-27T03:53:50.644Z,69.40
2019-03-27T03:56:18.892Z,68.20
2019-03-27T03:58:47.163Z,69.40
2019-03-27T04:01:34.902Z,70.10
2019-03-27T04:04:03.151Z,70.60
2019-03-27T04:06:31.709Z,69.90
2019-03-27T04:08:59.938Z,70.50
2019-03-27T04:11:28.170Z,68.80
2019-03-27T04:13:56.420Z,67.90
2019-03-27T04:16:24.657Z,69.10
2019-03-27T04:18:53.190Z,68.30
2019-03-27T04:21:21.453Z,70.20
2019-03-27T04:24:09.111Z,69.80
2019-03-27T04:26:37.676Z,69.30
2019-03-27T04:29:06.009Z,69.00
2019-03-27T04:31:34.280Z,68.90
2019-03-27T04:34:02.526Z,68.50
2019-03-27T04:36:30.779Z,68.20
2019-03-27T04:38:59.008Z,68.70
2019-03-27T04:41:27.537Z,69.30
2019-03-27T04:43:55.761Z,70.00
2019-03-27T04:46:24.068Z,70.70
2019-03-27T04:48:52.309Z,70.40
2019-03-27T04:51:20.541Z,69.90
2019-03-27T04:53:48.763Z,69.00
2019-03-27T04:56:17.004Z,69.70
2019-03-27T04:58:45.244Z,68.70
2019-03-27T05:01:13.481Z,69.50
2019-03-27T05:03:41.704Z,69.60
2019-03-27T05:06:09.944Z,69.00
2019-03-27T05:08:38.185Z,68.20
2019-03-27T05:11:26.104Z,69.80
2019-03-27T05:13:54.504Z,69.70
2019-03-27T05:16:23.081Z,70.00
2019-03-27T05:18:51.284Z,69.40
2019-03-27T05:21:19.517Z,71.30
2019-03-27T05:23:47.821Z,71.10
2019-03-27T05:26:16.066Z,69.30
2019-03-27T05:28:44.280Z,93.70
2019-03-27T05:31:12.508Z,99.90
2019-03-27T05:33:40.737Z,99.20
2019-03-27T05:36:08.995Z,87.80
2019-03-27T05:38:37.204Z,74.20
2019-03-27T05:41:05.515Z,56.40
2019-03-27T05:43:33.749Z,50.90
2019-03-27T05:46:02.304Z,55.00
2019-03-27T05:48:30.528Z,58.10
2019-03-27T05:50:58.794Z,61.70
2019-03-27T05:53:27.026Z,63.00
2019-03-27T05:55:55.291Z,64.60
2019-03-27T05:58:23.510Z,66.20
2019-03-27T06:00:51.741Z,67.70
2019-03-27T06:03:20.001Z,67.90
2019-03-27T06:05:48.298Z,68.80
2019-03-27T06:08:16.548Z,68.20
2019-03-27T06:10:44.774Z,68.00
2019-03-27T06:13:13.005Z,68.20
2019-03-27T06:16:00.803Z,68.00
2019-03-27T06:18:29.092Z,70.10
2019-03-27T06:20:57.420Z,69.60
2019-03-27T06:23:25.658Z,69.70
2019-03-27T06:25:53.884Z,69.30
2019-03-27T06:28:22.120Z,70.10
2019-03-27T06:30:50.339Z,68.20
2019-03-27T06:33:18.572Z,69.00
2019-03-27T06:35:46.814Z,84.70
2019-03-27T06:38:15.035Z,70.10
2019-03-27T06:40:43.253Z,70.00
2019-03-27T06:43:11.536Z,69.30
2019-03-27T06:45:40.356Z,68.90
2019-03-27T06:48:08.593Z,69.80
2019-03-27T06:50:36.813Z,70.50
2019-03-27T06:53:05.052Z,68.90
2019-03-27T06:55:33.300Z,69.60
2019-03-27T06:58:01.536Z,70.40
2019-03-27T07:00:34.808Z,73.10
2019-03-27T07:03:03.040Z,69.70
2019-03-27T07:05:31.617Z,69.50
2019-03-27T07:08:00.305Z,70.30
2019-03-27T07:10:28.505Z,70.90
2019-03-27T07:12:56.766Z,69.10
2019-03-27T07:15:24.985Z,69.20
2019-03-27T07:17:53.325Z,69.40
2019-03-27T07:20:21.563Z,69.40
2019-03-27T07:22:49.798Z,67.60
2019-03-27T07:25:18.027Z,69.20
2019-03-27T07:27:46.256Z,67.60
2019-03-27T07:30:14.497Z,66.90
2019-03-27T07:32:42.756Z,66.50
2019-03-27T07:35:11.216Z,66.20
2019-03-27T07:37:39.501Z,66.50
2019-03-27T07:40:08.203Z,66.40
2019-03-27T07:42:36.425Z,66.10
2019-03-27T07:45:06.784Z,66.30
2019-03-27T07:47:35.088Z,67.30
2019-03-27T07:50:03.779Z,66.50
2019-03-27T07:52:32.062Z,66.70
2019-03-27T07:55:00.436Z,66.10
2019-03-27T07:57:28.737Z,66.10
2019-03-27T07:59:56.961Z,65.60
2019-03-27T08:02:25.208Z,65.60
2019-03-27T08:04:53.481Z,66.00
2019-03-27T08:07:27.007Z,66.70
2019-03-27T08:09:51.668Z,65.70
2019-03-27T08:12:19.884Z,66.30
2019-03-27T08:14:48.481Z,66.70
2019-03-27T08:17:16.705Z,65.70
2019-03-27T08:19:44.940Z,66.20
2019-03-27T08:22:13.161Z,65.60
2019-03-27T08:24:41.548Z,64.80
2019-03-27T08:27:09.770Z,66.50
2019-03-27T08:29:38.011Z,65.70
2019-03-27T08:32:06.232Z,65.60
2019-03-27T08:34:34.780Z,65.00
2019-03-27T08:37:03.009Z,65.00
2019-03-27T08:39:31.281Z,65.10
2019-03-27T08:41:59.505Z,65.60
2019-03-27T08:44:27.807Z,65.30
2019-03-27T08:46:56.200Z,64.60
2019-03-27T08:49:24.444Z,64.00
2019-03-27T08:51:52.697Z,63.90
2019-03-27T08:54:21.916Z,62.70
2019-03-27T08:56:50.162Z,61.30
2019-03-27T08:59:18.404Z,62.30
2019-03-27T09:01:46.634Z,62.90
2019-03-27T09:04:14.868Z,63.10
2019-03-27T09:06:43.141Z,62.60
2019-03-27T09:09:11.380Z,62.00
2019-03-27T09:11:39.620Z,60.70
2019-03-27T09:14:07.936Z,60.10
2019-03-27T09:16:36.501Z,60.30
2019-03-27T09:19:04.802Z,59.50
2019-03-27T09:21:33.040Z,59.30
2019-03-27T09:24:01.292Z,60.10
2019-03-27T09:26:29.600Z,58.80
2019-03-27T09:28:57.837Z,58.20
2019-03-27T09:31:26.081Z,58.50
2019-03-27T09:33:54.312Z,60.00
2019-03-27T09:36:22.571Z,59.00
2019-03-27T09:38:50.821Z,59.00
2019-03-27T09:41:21.451Z,58.00
2019-03-27T09:43:49.032Z,58.50
2019-03-27T09:46:17.292Z,60.40
2019-03-27T09:48:45.511Z,58.00
2019-03-27T09:51:13.745Z,57.10
2019-03-27T09:53:41.984Z,58.80
2019-03-27T09:56:19.088Z,57.60
2019-03-27T09:58:40.176Z,57.50
2019-03-27T10:01:08.404Z,56.80
2019-03-27T10:03:36.707Z,56.90
2019-03-27T10:06:04.966Z,57.30
2019-03-27T10:08:33.485Z,54.80
2019-03-27T10:11:01.717Z,54.20
2019-03-27T10:13:29.951Z,54.30
2019-03-27T10:15:58.168Z,55.20
2019-03-27T10:18:26.421Z,56.30
2019-03-27T10:20:54.961Z,54.50
2019-03-27T10:23:23.445Z,54.40
2019-03-27T10:25:51.673Z,53.90
2019-03-27T10:28:19.929Z,53.00
2019-03-27T10:30:48.172Z,54.10
2019-03-27T10:33:16.418Z,53.60
2019-03-27T10:35:44.643Z,53.70
2019-03-27T10:38:13.056Z,53.40
2019-03-27T10:40:41.297Z,53.20
2019-03-27T10:43:09.556Z,52.80
2019-03-27T10:45:38.258Z,52.60
2019-03-27T10:48:06.480Z,51.80
2019-03-27T10:50:34.728Z,50.80
2019-03-27T10:53:02.969Z,50.50
2019-03-27T10:55:34.336Z,48.90
2019-03-27T10:58:01.172Z,48.20
2019-03-27T11:00:29.400Z,49.00
2019-03-27T11:02:57.628Z,48.20
2019-03-27T11:05:25.871Z,48.40
2019-03-27T11:07:54.121Z,47.80
2019-03-27T11:10:22.345Z,46.80
2019-03-27T11:12:50.926Z,48.10
2019-03-27T11:15:19.152Z,49.10
2019-03-27T11:17:47.394Z,49.30
2019-03-27T11:20:15.625Z,48.40
2019-03-27T11:22:43.875Z,47.00
2019-03-27T11:25:12.096Z,46.80
2019-03-27T11:27:40.328Z,47.90
2019-03-27T11:30:08.570Z,49.50
2019-03-27T11:32:36.804Z,47.60
2019-03-27T11:35:05.118Z,48.20
2019-03-27T11:37:33.676Z,49.50
2019-03-27T11:40:02.231Z,48.80
2019-03-27T11:42:30.473Z,49.20
2019-03-27T11:44:58.688Z,49.10
2019-03-27T11:47:26.920Z,49.30
2019-03-27T11:49:55.140Z,49.30
2019-03-27T11:52:23.388Z,50.10
2019-03-27T11:54:51.609Z,48.50
2019-03-27T11:57:19.824Z,45.30
2019-03-27T11:59:53.780Z,45.10
2019-03-27T12:02:18.024Z,41.60
2019-03-27T12:04:46.279Z,41.00
2019-03-27T12:07:14.506Z,40.90
2019-03-27T12:09:42.732Z,40.60
2019-03-27T12:12:10.955Z,41.90
2019-03-27T12:14:39.266Z,42.10
2019-03-27T12:17:07.480Z,42.70
2019-03-27T12:19:37.885Z,45.50
2019-03-27T12:22:05.680Z,45.80
2019-03-27T12:24:34.215Z,46.50
2019-03-27T12:27:02.438Z,46.40
2019-03-27T12:29:30.669Z,47.80
2019-03-27T12:31:58.917Z,47.80
2019-03-27T12:34:27.516Z,47.40
2019-03-27T12:36:55.745Z,48.70
2019-03-27T12:39:23.993Z,48.10
2019-03-27T12:41:52.229Z,47.90
2019-03-27T12:44:20.744Z,47.80
2019-03-27T12:46:51.854Z,46.80
2019-03-27T12:49:19.739Z,46.40
2019-03-27T12:51:47.957Z,46.40
2019-03-27T12:54:16.188Z,45.40
2019-03-27T12:56:44.419Z,46.40
2019-03-27T12:59:12.650Z,45.90
2019-03-27T13:01:40.881Z,44.20
2019-03-27T13:04:09.117Z,44.60
2019-03-27T13:06:37.400Z,43.20
2019-03-27T13:09:07.188Z,42.50
2019-03-27T13:11:36.883Z,42.10
2019-03-27T13:14:05.531Z,38.90
2019-03-27T13:16:33.874Z,38.30
2019-03-27T13:19:02.100Z,36.60
2019-03-27T13:21:30.332Z,37.40
2019-03-27T13:23:58.588Z,38.40
2019-03-27T13:26:26.996Z,37.90
2019-03-27T13:28:55.407Z,36.70
2019-03-27T13:31:23.649Z,35.30
2019-03-27T13:33:51.891Z,36.90
2019-03-27T13:36:20.473Z,36.80
2019-03-27T13:38:48.703Z,38.80
2019-03-27T13:41:16.940Z,39.20
2019-03-27T13:43:45.176Z,40.30
2019-03-27T13:46:13.400Z,40.90
2019-03-27T13:48:41.643Z,41.60
2019-03-27T13:51:09.873Z,41.90
2019-03-27T13:53:38.113Z,42.30
2019-03-27T13:56:06.328Z,42.60
2019-03-27T13:58:34.568Z,42.20
2019-03-27T14:01:02.875Z,42.30
2019-03-27T14:03:31.153Z,42.30
2019-03-27T14:05:59.688Z,42.80
2019-03-27T14:08:28.218Z,43.60
2019-03-27T14:10:56.457Z,44.20
2019-03-27T14:13:24.688Z,43.90
2019-03-27T14:15:52.921Z,44.10
2019-03-27T14:18:21.144Z,45.80
2019-03-27T14:20:49.385Z,45.00
2019-03-27T14:23:17.620Z,46.40
2019-03-27T14:25:45.857Z,47.30
2019-03-27T14:28:14.084Z,46.70
2019-03-27T14:30:48.320Z,46.70
2019-03-27T14:33:16.563Z,46.70
2019-03-27T14:35:44.849Z,46.90
2019-03-27T14:38:13.084Z,47.40
2019-03-27T14:40:41.320Z,48.10
2019-03-27T14:43:09.913Z,48.70
2019-03-27T14:45:38.140Z,48.20
2019-03-27T14:48:06.361Z,48.10
2019-03-27T14:50:34.933Z,48.60
2019-03-27T14:53:03.160Z,47.90
2019-03-27T14:55:31.393Z,47.70
2019-03-27T14:57:59.638Z,47.50
2019-03-27T15:00:27.876Z,48.20
2019-03-27T15:02:56.101Z,47.60
2019-03-27T15:05:24.336Z,48.00
2019-03-27T15:07:52.581Z,48.30
2019-03-27T15:10:20.809Z,47.90
2019-03-27T15:12:49.030Z,47.40
2019-03-27T15:15:17.269Z,48.10
2019-03-27T15:17:45.509Z,47.80
2019-03-27T15:20:14.432Z,48.60
2019-03-27T15:22:42.652Z,49.00
2019-03-27T15:25:10.897Z,48.60
2019-03-27T15:27:39.133Z,47.20
2019-03-27T15:30:12.579Z,46.60
2019-03-27T15:32:40.021Z,47.40
2019-03-27T15:35:08.253Z,47.30
2019-03-27T15:37:36.484Z,47.90
2019-03-27T15:40:05.462Z,47.10
2019-03-27T15:42:33.723Z,48.20
2019-03-27T15:45:02.329Z,47.60
2019-03-27T15:47:30.558Z,47.60
2019-03-27T15:49:58.805Z,47.50
2019-03-27T15:52:36.392Z,47.40
2019-03-27T15:54:56.987Z,47.40
2019-03-27T15:57:25.226Z,47.50
2019-03-27T15:59:53.541Z,46.90
2019-03-27T16:02:21.788Z,47.10
2019-03-27T16:04:50.012Z,48.10
2019-03-27T16:07:18.328Z,47.80
2019-03-27T16:09:46.561Z,47.50
2019-03-27T16:12:14.805Z,48.30
2019-03-27T16:14:43.088Z,47.80
2019-03-27T16:17:13.719Z,47.50
2019-03-27T16:19:41.600Z,47.90
2019-03-27T16:22:10.014Z,47.60
2019-03-27T16:24:38.282Z,47.50
2019-03-27T16:27:06.553Z,48.10
2019-03-27T16:29:34.801Z,47.40
2019-03-27T16:32:03.192Z,48.20
2019-03-27T16:34:31.447Z,47.20
2019-03-27T16:36:59.680Z,48.00
2019-03-27T16:39:27.931Z,47.60
2019-03-27T16:41:56.562Z,47.90
2019-03-27T16:44:24.869Z,47.40
2019-03-27T16:46:53.135Z,47.60
2019-03-27T16:49:21.366Z,46.90
2019-03-27T16:51:49.605Z,46.70
2019-03-27T16:54:17.824Z,46.90
2019-03-27T16:56:46.056Z,47.00
2019-03-27T16:59:14.276Z,47.10
2019-03-27T17:01:42.506Z,47.00
2019-03-27T17:04:10.726Z,47.20
2019-03-27T17:06:38.959Z,46.90
2019-03-27T17:09:07.929Z,46.80
2019-03-27T17:11:36.498Z,47.10
2019-03-27T17:14:04.732Z,47.30
2019-03-27T17:16:32.964Z,49.30
2019-03-27T17:19:01.187Z,48.60
2019-03-27T17:21:29.415Z,48.80
2019-03-27T17:23:57.644Z,48.90
2019-03-27T17:26:25.883Z,48.60
2019-03-27T17:28:54.109Z,48.60
2019-03-27T17:31:22.336Z,48.90
2019-03-27T17:33:50.559Z,47.70
2019-03-27T17:36:18.776Z,48.90
2019-03-27T17:38:47.008Z,50.80
2019-03-27T17:41:15.506Z,48.10
2019-03-27T17:43:43.742Z,49.50
2019-03-27T17:46:11.960Z,50.90
2019-03-27T17:48:40.198Z,49.70
2019-03-27T17:51:08.417Z,49.70
2019-03-27T17:53:36.653Z,49.50
2019-03-27T17:56:04.875Z,48.90
2019-03-27T17:58:33.128Z,49.50
2019-03-27T18:01:03.049Z,51.70
2019-03-27T18:03:31.293Z,50.50
2019-03-27T18:05:59.508Z,50.90
2019-03-27T18:08:27.744Z,51.60
2019-03-27T18:10:56.073Z,51.50
2019-03-27T18:13:24.313Z,51.40
2019-03-27T18:15:52.622Z,52.80
2019-03-27T18:18:20.859Z,53.00
2019-03-27T18:20:49.085Z,53.80
2019-03-27T18:23:17.349Z,53.90
2019-03-27T18:25:45.568Z,53.60
2019-03-27T18:28:14.091Z,53.40
2019-03-27T18:30:42.305Z,55.20
2019-03-27T18:33:10.620Z,55.00
2019-03-27T18:35:39.122Z,54.90
2019-03-27T18:38:07.663Z,55.60
2019-03-27T18:40:36.000Z,56.20
2019-03-27T18:43:04.422Z,55.20
2019-03-27T18:45:32.659Z,55.60
2019-03-27T18:48:00.912Z,55.80
2019-03-27T18:50:29.132Z,56.50
2019-03-27T18:52:57.400Z,56.10
2019-03-27T18:55:27.046Z,57.00
2019-03-27T18:58:00.454Z,56.80
2019-03-27T19:00:25.614Z,56.70
2019-03-27T19:02:54.264Z,56.50
2019-03-27T19:05:22.483Z,56.70
2019-03-27T19:07:50.744Z,57.80
2019-03-27T19:10:19.008Z,58.60
2019-03-27T19:12:47.264Z,58.50
2019-03-27T19:15:15.505Z,57.90
2019-03-27T19:17:43.853Z,57.70
2019-03-27T19:20:12.072Z,57.20
2019-03-27T19:22:40.323Z,58.70
2019-03-27T19:25:08.549Z,58.00
2019-03-27T19:27:36.807Z,58.00
2019-03-27T19:30:06.660Z,58.70
2019-03-27T19:32:35.000Z,60.10
2019-03-27T19:35:03.345Z,59.90
2019-03-27T19:37:31.591Z,59.30
2019-03-27T19:40:01.262Z,58.40
2019-03-27T19:42:30.060Z,57.70
2019-03-27T19:44:58.417Z,58.90
2019-03-27T19:47:26.717Z,58.40
2019-03-27T19:49:54.971Z,58.50
2019-03-27T19:52:23.473Z,59.10
2019-03-27T19:54:51.775Z,59.40
2019-03-27T19:57:20.337Z,59.70
2019-03-27T19:59:48.664Z,59.70
2019-03-27T20:02:17.116Z,59.30
2019-03-27T20:04:45.399Z,59.70
2019-03-27T20:07:13.628Z,58.90
2019-03-27T20:09:41.868Z,59.30
2019-03-27T20:12:10.092Z,58.60
2019-03-27T20:14:38.328Z,59.90
2019-03-27T20:17:06.862Z,60.80
2019-03-27T20:19:35.102Z,59.80
2019-03-27T20:22:03.328Z,61.50
2019-03-27T20:24:41.016Z,60.00
2019-03-27T20:27:01.516Z,59.70
2019-03-27T20:29:29.755Z,58.40
2019-03-27T20:31:57.985Z,61.70
2019-03-27T20:34:26.216Z,61.50
2019-03-27T20:37:13.873Z,59.70
2019-03-27T20:39:42.837Z,60.90
2019-03-27T20:42:11.220Z,60.40
2019-03-27T20:44:39.536Z,59.50
2019-03-27T20:47:07.771Z,60.10
2019-03-27T20:49:36.008Z,60.60
2019-03-27T20:52:04.236Z,60.80
2019-03-27T20:54:32.484Z,60.00
2019-03-27T20:57:00.772Z,59.40
2019-03-27T20:59:29.012Z,59.70
2019-03-27T21:01:57.241Z,59.50
2019-03-27T21:04:25.476Z,60.00
2019-03-27T21:06:53.706Z,60.80
2019-03-27T21:09:22.263Z,59.80
2019-03-27T21:11:50.480Z,59.40
2019-03-27T21:14:18.720Z,59.70
2019-03-27T21:16:46.944Z,57.80
2019-03-27T21:19:15.185Z,57.70
2019-03-27T21:21:43.404Z,57.20
2019-03-27T21:24:11.640Z,56.00
2019-03-27T21:26:39.860Z,55.40
2019-03-27T21:29:08.093Z,55.80
2019-03-27T21:31:36.657Z,55.80
2019-03-27T21:34:04.890Z,55.00
2019-03-27T21:36:33.120Z,55.80
2019-03-27T21:39:01.353Z,55.10
2019-03-27T21:41:29.573Z,55.70
2019-03-27T21:43:57.815Z,55.50
2019-03-27T21:46:26.052Z,55.60
2019-03-27T21:48:54.291Z,54.40
2019-03-27T21:51:22.520Z,54.60
2019-03-27T21:53:51.057Z,54.80
2019-03-27T21:56:19.621Z,55.10
2019-03-27T21:58:47.888Z,54.60
2019-03-27T22:01:16.480Z,53.80
2019-03-27T22:03:44.960Z,53.90
2019-03-27T22:06:13.180Z,54.00
2019-03-27T22:08:41.407Z,53.70
2019-03-27T22:11:09.629Z,54.20
2019-03-27T22:13:37.876Z,54.20
2019-03-27T22:16:06.117Z,54.80
2019-03-27T22:18:34.336Z,54.60
2019-03-27T22:21:02.571Z,54.00
2019-03-27T22:23:30.866Z,54.00
2019-03-27T22:25:59.256Z,54.60
2019-03-27T22:28:27.480Z,54.40
2019-03-27T22:30:55.790Z,54.80
2019-03-27T22:33:24.276Z,54.80
2019-03-27T22:35:52.509Z,55.20
2019-03-27T22:38:20.728Z,55.50
2019-03-27T22:40:49.032Z,54.90
2019-03-27T22:43:17.328Z,55.70
2019-03-27T22:45:45.560Z,55.70
2019-03-27T22:48:13.887Z,55.80
2019-03-27T22:50:42.440Z,55.40
2019-03-27T22:53:30.196Z,56.00
2019-03-27T22:55:58.428Z,55.40
2019-03-27T22:58:26.645Z,55.30
2019-03-27T23:00:55.244Z,56.30
2019-03-27T23:03:23.459Z,55.80
2019-03-27T23:05:51.767Z,56.80
2019-03-27T23:08:19.981Z,57.40
2019-03-27T23:10:48.218Z,57.80
2019-03-27T23:13:16.428Z,57.90
2019-03-27T23:15:45.513Z,58.10
2019-03-27T23:18:13.731Z,58.50
2019-03-27T23:20:41.958Z,58.10
2019-03-27T23:23:10.173Z,58.60
2019-03-27T23:25:38.400Z,58.80
2019-03-27T23:28:06.680Z,60.00
2019-03-27T23:30:34.908Z,59.00
2019-03-27T23:33:03.498Z,58.30
2019-03-27T23:35:32.108Z,58.80
2019-03-27T23:38:00.328Z,58.80
2019-03-27T23:40:28.559Z,60.00
2019-03-27T23:42:56.784Z,60.30
2019-03-27T23:45:25.016Z,61.70
2019-03-27T23:47:53.488Z,62.80
2019-03-27T23:50:21.723Z,63.50
2019-03-27T23:52:49.932Z,63.10
2019-03-27T23:55:18.164Z,62.60
2019-03-27T23:57:46.692Z,63.10
